Pagrindinis puslapis
METAR-TAF:

METAR-TAF

Oro uostai :

Krasnodaras, Rusija

platuma: 45-02N, ilguma: 039-09E, Aukštis: 33 m

Dabartinis oras

Ataskaita buvo paskelbta 14 minutes, ne 06:30 UTC
Vėjas 2 kt nuo kintamojo kryptimis
Temperatūra 12°C
Drėgmė 50%
Slėgis 1015 hPa
Matomumas 10 km arba daugiau
nėra debesų žemiau 1500 m ir nėra kamuolinių lietaus debesų

METAR: URKK 100630Z VRB01MPS CAVOK 12/02 Q1015 R23L/CLRD70 NOSIG RMK QFE758

Laikas: 10:44 (06:44 UTC)

Prognozė

Ataskaita buvo paskelbta 1 valandą ir 51 minutes, ne 04:53 UTC
Prognozė galioja nuo 10 metu 06 UTC su 11 metu 06 UTC
Vėjas 6 kt iš Vakarų/Pietvakarių su gūsio iki 16 kt
Matomumas 10 km arba daugiau
nėra debesų žemiau 1500 m ir nėra kamuolinių lietaus debesų

TAF: URKK 100453Z 1006/1106 25003G08MPS CAVOK

Orai ataskaitas ir orų prognozės (METAR, TAF).

turimą stotys yra geltonos ir raudonos taškus žemėlapyje.

Perkelti pele per norėdami pamatyti stoties vardą.

Tada spustelėkite, norėdami matyti oro stebėjimo ir prognozės.

Norėdami pakeisti žemėlapį: spustelėkite ant žalios mygtukų su juodo kryžiaus žemyn,; žalią mygtuką su brūkšneliu, jei norite nutolinti; arba žalių rodyklių gretimoms žemėlapius.


METAR-TAF: